Euskara    
Meteorología y climatología de Navarra
Datos de la estación - Meteo Navarra

Estación de Tudela (Montes del Cierzo) GN

Altitud 314 m.


Datos desde el 18/10/2020 hasta el 19/10/2020 en horario solar
Los datos son PROVISIONALES

Anterior Página 1 de 1 Siguiente Descargar: Formato para Excel 2000 o superior   Formato csv   Formato para OpenOffice Calc
Fecha Temperatura Humedad relativa Radiación global Insolación Precipitación Vel. viento 10 m Vel. viento 10 m Dir. viento 10 m
°C % W/m² s l/m² m/s km/h °
18/10/2020 0:00 5.5 82 0.0 0 0.0 2.2 8.0 234
18/10/2020 0:10 5.4 83 0.0 0 0.0 2.9 10.4 225
18/10/2020 0:20 5.4 83 0.0 0 0.0 2.8 9.9 233
18/10/2020 0:30 5.4 83 0.0 0 0.0 2.1 7.5 240
18/10/2020 0:40 5.4 84 0.0 0 0.0 1.9 6.8 239
18/10/2020 0:50 5.2 84 0.0 0 0.0 2.5 8.9 249
18/10/2020 1:00 5.1 85 0.0 0 0.0 2.5 8.9 243
18/10/2020 1:10 5.0 85 0.0 0 0.0 2.7 9.8 234
18/10/2020 1:20 4.9 85 0.0 0 0.0 3.0 10.9 254
18/10/2020 1:30 4.7 86 0.0 0 0.0 3.0 10.6 259
18/10/2020 1:40 4.8 87 0.0 0 0.0 2.2 7.7 232
18/10/2020 1:50 4.9 86 0.0 0 0.0 2.4 8.5 258
18/10/2020 2:00 4.6 87 0.0 0 0.0 2.1 7.5 241
18/10/2020 2:10 4.7 87 0.0 0 0.0 2.1 7.7 229
18/10/2020 2:20 4.6 87 0.0 0 0.0 3.0 10.8 258
18/10/2020 2:30 4.5 88 0.0 0 0.0 2.8 10.1 258
18/10/2020 2:40 4.6 88 0.0 0 0.0 1.8 6.5 247
18/10/2020 2:50 4.6 88 0.0 0 0.0 2.6 9.5 258
18/10/2020 3:00 4.6 89 0.0 0 0.0 3.3 11.9 269
18/10/2020 3:10 4.8 89 0.0 0 0.0 2.4 8.5 261
18/10/2020 3:20 4.8 88 0.0 0 0.0 2.1 7.4 234
18/10/2020 3:30 4.8 88 0.0 0 0.0 2.6 9.3 236
18/10/2020 3:40 4.6 87 0.0 0 0.0 2.7 9.6 255
18/10/2020 3:50 4.3 87 0.0 0 0.0 2.4 8.5 251
18/10/2020 4:00 4.2 88 0.0 0 0.0 2.2 7.9 232
18/10/2020 4:10 4.1 88 0.0 0 0.0 2.2 7.7 233
18/10/2020 4:20 4.1 88 0.0 0 0.0 2.0 7.3 251
18/10/2020 4:30 4.1 88 0.0 0 0.0 2.2 7.9 268
18/10/2020 4:40 4.1 89 0.0 0 0.0 2.1 7.5 254
18/10/2020 4:50 4.1 89 0.0 0 0.0 2.1 7.7 235
18/10/2020 5:00 3.9 88 0.0 0 0.0 2.0 7.2 250
18/10/2020 5:10 3.7 88 0.0 0 0.0 1.8 6.5 267
18/10/2020 5:20 3.5 88 0.0 0 0.0 1.6 5.7 260
18/10/2020 5:30 3.3 89 0.0 0 0.0 1.1 4.0 262
18/10/2020 5:40 3.5 89 0.0 0 0.0 0.9 3.3 259
18/10/2020 5:50 3.5 88 0.0 0 0.0 0.9 3.4 270
18/10/2020 6:00 3.3 88 0.0 0 0.0 0.8 3.0 250
18/10/2020 6:10 3.1 89 0.0 0 0.0 0.8 3.0 247
18/10/2020 6:20 2.9 89 0.0 0 0.0 1.7 6.0 230
18/10/2020 6:30 2.8 89 0.0 0 0.0 1.9 6.8 235
18/10/2020 6:40 2.9 89 19.9 18 0.0 2.0 7.1 242
18/10/2020 6:50 3.2 90 39.0 600 0.0 1.4 5.2 266
18/10/2020 7:00 3.6 89 61.4 600 0.0 1.3 4.6 266
18/10/2020 7:10 4.5 89 102.5 600 0.0 1.4 5.2 245
18/10/2020 7:20 5.6 88 141.9 600 0.0 1.3 4.8 245
18/10/2020 7:30 6.7 86 195.3 600 0.0 0.6 2.3 237
18/10/2020 7:40 7.4 83 213.0 600 0.0 0.6 2.1 263
18/10/2020 7:50 7.9 80 185.0 600 0.0 0.5 1.8 280
18/10/2020 8:00 8.4 78 205.3 600 0.0 0.4 1.4 294
18/10/2020 8:10 9.0 75 231.4 600 0.0 0.4 1.6 297
18/10/2020 8:20 9.3 74 253.0 600 0.0 0.3 1.2 223
18/10/2020 8:30 9.6 73 287.8 600 0.0 0.4 1.6 113
18/10/2020 8:40 9.7 74 323.5 600 0.0 0.7 2.5 117
18/10/2020 8:50 10.1 74 356.6 600 0.0 0.5 1.9 110
18/10/2020 9:00 10.7 72 451.4 600 0.0 0.7 2.6 106
18/10/2020 9:10 11.1 70 428.5 600 0.0 0.7 2.4 40
18/10/2020 9:20 11.5 67 356.7 600 0.0 1.0 3.5 354
18/10/2020 9:30 11.1 66 266.2 484 0.0 1.3 4.6 356
18/10/2020 9:40 11.4 66 398.5 600 0.0 1.1 4.1 350
18/10/2020 9:50 12.1 62 469.6 600 0.0 2.0 7.1 351
18/10/2020 10:00 12.5 61 511.5 600 0.0 1.9 7.0 352
18/10/2020 10:10 12.7 60 546.6 600 0.0 2.3 8.2 3
18/10/2020 10:20 12.9 59 558.4 600 0.0 2.1 7.5 1
18/10/2020 10:30 13.5 57 565.2 600 0.0 2.0 7.3 348
18/10/2020 10:40 14.1 56 606.7 600 0.0 1.6 5.8 344
18/10/2020 10:50 14.2 55 616.2 600 0.0 1.5 5.3 356
18/10/2020 11:00 14.4 54 630.6 600 0.0 1.6 5.7 27
18/10/2020 11:10 14.7 53 637.7 600 0.0 1.4 5.0 41
18/10/2020 11:20 15.2 51 634.5 600 0.0 1.7 6.1 8
18/10/2020 11:30 15.7 48 655.1 600 0.0 1.8 6.5 7
18/10/2020 11:40 16.1 47 641.6 600 0.0 1.2 4.4 21
18/10/2020 11:50 16.3 46 629.3 600 0.0 1.1 4.1 66
18/10/2020 12:00 16.6 46 600.5 600 0.0 0.7 2.5 27
18/10/2020 12:10 17.1 46 636.3 600 0.0 0.9 3.1 128
18/10/2020 12:20 17.3 47 635.4 600 0.0 1.0 3.5 154
18/10/2020 12:30 17.5 45 579.6 600 0.0 0.6 2.2 155
18/10/2020 12:40 17.8 48 584.7 600 0.0 1.4 4.9 135
18/10/2020 12:50 17.8 44 571.8 600 0.0 0.9 3.1 134
18/10/2020 13:00 18.4 45 583.9 600 0.0 0.8 2.7 122
18/10/2020 13:10 18.6 44 568.6 600 0.0 1.1 4.1 111
18/10/2020 13:20 18.7 46 503.9 600 0.0 1.4 5.2 118
18/10/2020 13:30 18.7 44 454.6 600 0.0 1.7 6.0 132
18/10/2020 13:40 18.6 42 370.1 600 0.0 1.1 4.0 100
18/10/2020 13:50 18.9 43 342.8 600 0.0 1.5 5.3 85
18/10/2020 14:00 18.8 41 286.3 430 0.0 1.3 4.5 93
18/10/2020 14:10 18.7 43 385.3 482 0.0 0.6 2.1 113
18/10/2020 14:20 19.4 41 527.1 600 0.0 1.3 4.8 144
18/10/2020 14:30 19.5 41 474.5 600 0.0 1.2 4.4 134
18/10/2020 14:40 19.7 40 523.1 600 0.0 1.3 4.5 143
18/10/2020 14:50 19.9 40 424.9 600 0.0 1.4 5.1 138
18/10/2020 15:00 19.8 41 407.2 600 0.0 1.6 5.6 137
18/10/2020 15:10 19.8 41 296.1 600 0.0 1.3 4.5 139
18/10/2020 15:20 19.9 41 246.5 600 0.0 0.6 2.1 142
18/10/2020 15:30 19.7 45 167.0 242 0.0 0.8 2.9 176
18/10/2020 15:40 19.4 41 130.5 0 0.0 0.9 3.2 132
18/10/2020 15:50 19.6 44 225.4 510 0.0 0.9 3.2 115
18/10/2020 16:00 19.9 47 166.1 586 0.0 0.9 3.3 118
18/10/2020 16:10 19.7 51 127.3 600 0.0 1.4 5.0 116
18/10/2020 16:20 19.4 52 95.2 322 0.0 1.6 5.6 112
18/10/2020 16:30 19.1 53 52.8 0 0.0 1.4 5.1 116
18/10/2020 16:40 18.6 52 38.8 0 0.0 1.8 6.4 141
18/10/2020 16:50 17.6 52 27.2 0 0.0 2.0 7.3 151
18/10/2020 17:00 16.6 56 7.8 0 0.0 2.5 8.9 144
18/10/2020 17:10 15.7 55 0.0 0 0.0 3.1 11.1 150
18/10/2020 17:20 15.3 57 0.0 0 0.0 2.9 10.6 147
18/10/2020 17:30 14.4 59 0.0 0 0.0 3.1 11.3 156
18/10/2020 17:40 14.3 58 0.0 0 0.0 2.7 9.6 161
18/10/2020 17:50 14.0 57 0.0 0 0.0 2.6 9.5 166
18/10/2020 18:00 13.6 58 0.0 0 0.0 2.0 7.2 168
18/10/2020 18:10 12.9 60 0.0 0 0.0 1.4 4.9 183
18/10/2020 18:20 12.5 62 0.0 0 0.0 0.3 1.1 190
18/10/2020 18:30 12.5 61 0.0 0 0.0 0.7 2.6 137
18/10/2020 18:40 13.1 59 0.0 0 0.0 1.2 4.3 173
18/10/2020 18:50 12.9 57 0.0 0 0.0 0.9 3.1 117
18/10/2020 19:00 12.4 61 0.0 0 0.0 1.9 6.7 94
18/10/2020 19:10 11.4 69 0.0 0 0.0 1.7 6.2 102
18/10/2020 19:20 11.1 71 0.0 0 0.0 2.0 7.2 124
18/10/2020 19:30 11.0 69 0.0 0 0.0 1.9 6.7 137
18/10/2020 19:40 11.3 65 0.0 0 0.0 1.3 4.7 150
18/10/2020 19:50 11.1 64 0.0 0 0.0 2.3 8.4 146
18/10/2020 20:00 11.6 63 0.0 0 0.0 2.9 10.4 154
18/10/2020 20:10 11.6 62 0.0 0 0.0 3.2 11.3 156
18/10/2020 20:20 11.1 64 0.0 0 0.0 1.8 6.5 180
18/10/2020 20:30 9.9 69 0.0 0 0.0 1.0 3.4 217
18/10/2020 20:40 10.0 69 0.0 0 0.0 0.6 2.1 113
18/10/2020 20:50 10.2 69 0.0 0 0.0 0.5 1.6 118
18/10/2020 21:00 10.0 69 0.0 0 0.0 0.7 2.4 99
18/10/2020 21:10 9.4 72 0.0 0 0.0 1.4 5.2 99
18/10/2020 21:20 9.1 75 0.0 0 0.0 2.1 7.7 135
18/10/2020 21:30 8.8 75 0.0 0 0.0 1.0 3.7 145
18/10/2020 21:40 8.5 76 0.0 0 0.0 1.2 4.3 137
18/10/2020 21:50 8.7 76 0.0 0 0.0 1.4 5.0 126
18/10/2020 22:00 8.7 77 0.0 0 0.0 2.4 8.7 121
18/10/2020 22:10 8.3 78 0.0 0 0.0 2.1 7.7 135
18/10/2020 22:20 8.2 77 0.0 0 0.0 0.8 2.9 197
18/10/2020 22:30 8.1 76 0.0 0 0.0 1.1 3.9 202
18/10/2020 22:40 7.5 77 0.0 0 0.0 1.4 4.9 205
18/10/2020 22:50 7.4 77 0.0 0 0.0 1.4 5.0 175
18/10/2020 23:00 6.9 78 0.0 0 0.0 1.7 6.1 146
18/10/2020 23:10 6.8 80 0.0 0 0.0 0.8 2.9 179
18/10/2020 23:20 6.9 81 0.0 0 0.0 1.1 3.9 191
18/10/2020 23:30 6.9 80 0.0 0 0.0 1.1 4.0 173
18/10/2020 23:40 7.1 80 0.0 0 0.0 1.6 5.9 172
18/10/2020 23:50 7.2 79 0.0 0 0.0 2.0 7.3 141
Anterior Página 1 de 1 Siguiente

NOTA: Tipo de datos según el color:
   - Valores diarios o 10 minutos correctos
   - Valores diarios calculados a partir de un número de datos 10 minutos menor que 144 y mayor que 120, o de un número de datos semihorarios menor que 48 y mayor que 40 (caso de las estaciones de INTIA Y Ministerio)
   - Valores diez minutos estimados


Contacto        Enlaces        Aviso legal